This is the latest recevied weather packets stored in our database for station/object AC8JV. If no packets are shown the sender has not sent any weather packets the latest 10 day(s).
| Time | Temp. | Humidity | Pressure | Rain* | Wind** | Luminosity | Snow |
|---|---|---|---|---|---|---|---|
| 1777244401 | 20.56° C | 49% | 1017.7 hPa | 0 mm | - | - | - |
| 1777243801 | 21.11° C | 45% | 1017.8 hPa | 0 mm | - | - | - |
| 1777243216 | 21.11° C | 46% | 1017.9 hPa | 0 mm | - | - | - |
| 1777242610 | 21.11° C | 46% | 1017.7 hPa | 0 mm | - | - | - |
| 1777242001 | 21.67° C | 47% | 1017.8 hPa | 0 mm | - | - | - |
| 1777241409 | 21.67° C | 48% | 1017.7 hPa | 0 mm | - | - | - |
| 1777240818 | 21.67° C | 47% | 1017.9 hPa | 0 mm | - | - | - |
| 1777240210 | 21.67° C | 47% | 1018 hPa | 0 mm | - | - | - |
| 1777239647 | 21.67° C | 47% | 1018.1 hPa | 0 mm | - | - | - |
| 1777239002 | 21.67° C | 49% | 1018.3 hPa | 0 mm | - | - | - |
| 1777238414 | 21.11° C | 50% | 1018.3 hPa | 0 mm | - | - | - |
| 1777237801 | 21.11° C | 48% | 1018.4 hPa | 0 mm | - | - | - |
| 1777237204 | 21.11° C | 47% | 1018.6 hPa | 0 mm | - | - | - |
| 1777236620 | 21.11° C | 47% | 1018.6 hPa | 0 mm | - | - | - |
| 1777236004 | 21.11° C | 48% | 1018.8 hPa | 0 mm | - | - | - |
| 1777235404 | 21.11° C | 50% | 1018.6 hPa | 0 mm | - | - | - |
| 1777234797 | 21.67° C | 47% | 1018.6 hPa | 0 mm | - | - | - |
| 1777234201 | 21.11° C | 51% | 1018.7 hPa | 0 mm | - | - | - |
| 1777233600 | 21.11° C | 53% | 1018.8 hPa | 0 mm | - | - | - |
| 1777233030 | 21.11° C | 51% | 1019 hPa | 0 mm | - | - | - |
| 1777232429 | 20.56° C | 51% | 1019.1 hPa | 0 mm | - | - | - |
| 1777231807 | 20.56° C | 49% | 1019.3 hPa | 0 mm | - | - | - |
| 1777231207 | 20.56° C | 50% | 1019.3 hPa | 0 mm | - | - | - |
| 1777230598 | 20° C | 52% | 1019.2 hPa | 0 mm | - | - | - |
| 1777230072 | 20° C | 56% | 1019.2 hPa | 0 mm | - | - | - |
* Rain latest hour (hover to see other rain measurements)
** Current wind speed in m/s (hover to see current wind gust speed)